Latest Weather Observations for Camden

IDN60801

Issued at 11:52 pm EST Monday 24 June 2019 (issued every 10 minutes, with the page automatically refreshed every 10 minutes)

About weather observations | Map of weather stations | Latest weather observations for NSW | Other Formats
Station Details ID: 068192 Name: CAMDEN AIRPORT AWS Lat: -34.04 Lon: 150.69 Height: 73.9 m
Data from the previous 72 hours. | See also: Recent months at Camden
Date/Time
EST
Temp
°C
App
Temp
°C
Dew
Point
°C
Rel
Hum
%
Delta-T
°C
Wind Press
QNH
hPa
Press
MSL
hPa
Rain since
9am
mm
Dir  Spd
km/h
Gust
km/h
Spd
kts
Gust
kts
24/11:30pm 9.3 9.0 8.7 96 0.3 CALM 0 0 0 0 1033.1 1033.2 0.0
24/11:00pm 9.2 8.8 8.3 94 0.4 CALM 0 0 0 0 1033.0 1033.1 0.0
24/10:30pm 9.2 8.9 8.7 97 0.2 CALM 0 0 0 0 1032.9 1033.0 0.0
24/10:00pm 8.3 7.8 7.7 96 0.3 CALM 0 0 0 0 1032.8 1032.9 0.0
24/09:30pm 9.0 8.7 8.7 98 0.1 CALM 0 0 0 0 1032.7 1032.8 0.0
24/09:00pm 8.9 8.6 8.5 97 0.2 CALM 0 0 0 0 1032.6 1032.7 0.0
24/08:30pm 8.4 7.9 7.8 96 0.3 CALM 0 0 0 0 1032.6 1032.7 0.0
24/08:00pm 8.3 7.2 6.8 90 0.7 SW 2 7 1 4 1032.7 1032.8 0.0
24/07:30pm 9.7 7.6 8.3 91 0.7 SSW 9 9 5 5 1032.4 1032.5 0.0
24/07:00pm 9.0 8.2 8.1 94 0.4 SW 2 9 1 5 1032.3 1032.4 0.0
24/06:30pm 9.1 8.6 7.7 91 0.7 CALM 0 0 0 0 1032.1 1032.2 0.0
24/06:00pm 10.3 10.1 9.1 92 0.6 CALM 0 0 0 0 1031.7 1031.8 0.0
24/05:30pm 10.8 10.1 6.9 77 1.9 CALM 0 0 0 0 1031.4 1031.5 0.0
24/05:00pm 12.4 10.6 8.1 75 2.1 S 7 11 4 6 1031.2 1031.3 0.0
24/04:30pm 13.2 12.6 8.9 75 2.2 SSE 2 7 1 4 1031.0 1031.1 0.0
24/04:00pm 14.0 12.1 9.0 72 2.5 SSE 9 13 5 7 1030.9 1031.0 0.0
24/03:30pm 14.3 12.0 9.1 71 2.7 SE 11 17 6 9 1030.9 1031.0 0.0
24/03:00pm 14.1 12.5 10.3 78 2.0 SE 9 15 5 8 1030.9 1031.0 0.0
24/02:30pm 14.0 12.1 10.4 79 1.9 SSE 11 17 6 9 1030.8 1030.8 0.0
24/02:00pm 14.4 10.8 9.8 74 2.4 SSE 19 26 10 14 1030.9 1031.0 0.0
24/01:30pm 14.5 10.6 9.5 72 2.6 SSE 20 30 11 16 1030.9 1031.0 0.0
24/01:00pm 15.6 12.9 10.2 70 2.8 S 15 20 8 11 1030.9 1031.0 0.0
24/12:30pm 13.6 9.1 10.2 80 1.8 SSE 24 39 13 21 1031.4 1031.5 0.0
24/12:00pm 16.9 12.2 9.1 60 4.0 SSE 24 35 13 19 1031.2 1031.3 0.0
24/11:30am 16.1 11.7 7.6 57 4.3 S 20 32 11 17 1031.5 1031.6 0.0
24/11:00am 16.1 11.0 7.8 58 4.1 S 24 35 13 19 1031.7 1031.8 0.0
24/10:30am 15.6 11.6 8.1 61 3.8 S 19 26 10 14 1031.7 1031.8 0.0
24/10:00am 14.8 11.3 8.7 67 3.1 S 17 24 9 13 1031.7 1031.8 0.0
24/09:30am 13.8 11.1 9.0 73 2.4 SSW 13 22 7 12 1031.7 1031.8 0.0
24/09:00am 12.8 10.2 9.3 79 1.8 SSW 13 19 7 10 1031.5 1031.6 7.4
24/08:30am 11.1 9.0 8.1 82 1.5 SSW 9 13 5 7 1031.2 1031.3 7.4
24/08:00am 9.6 7.6 7.2 85 1.1 SSW 7 7 4 4 1031.0 1031.1 7.4
24/07:30am 8.9 7.0 6.9 87 0.9 SSW 6 9 3 5 1030.9 1031.0 7.4
24/07:00am 9.3 6.9 6.9 85 1.1 SW 9 13 5 7 1030.6 1030.6 7.4
24/06:30am 9.7 7.3 7.1 84 1.2 SSW 9 13 5 7 1030.2 1030.2 7.4
24/06:00am 10.0 7.3 7.4 84 1.2 SW 11 13 6 7 1030.0 1030.0 7.4
24/05:30am 9.6 7.7 7.4 86 1.0 SSW 7 9 4 5 1030.1 1030.1 7.4
24/05:00am 10.0 7.4 7.9 87 1.0 SSW 11 15 6 8 1029.8 1029.8 7.4
24/04:30am 8.8 8.2 7.4 91 0.7 CALM 0 0 0 0 1029.6 1029.6 7.4
24/04:00am 8.9 7.0 7.5 91 0.7 SW 7 11 4 6 1029.3 1029.4 7.4
24/03:30am 8.8 7.0 7.3 90 0.7 SSW 6 9 3 5 1029.6 1029.6 7.4
24/03:00am 8.6 6.3 7.4 92 0.6 SW 9 11 5 6 1029.6 1029.6 7.4
24/02:30am 9.4 7.2 7.7 89 0.8 SSW 9 17 5 9 1029.5 1029.5 7.2
24/02:00am 9.1 7.1 7.2 88 0.9 S 7 9 4 5 1029.3 1029.4 6.2
24/01:30am 9.0 6.2 7.1 88 0.9 SSW 11 13 6 7 1029.0 1029.1 6.0
24/01:00am 9.4 7.0 7.2 86 1.0 SSW 9 13 5 7 1029.0 1029.1 6.0
24/12:30am 9.4 7.8 8.0 91 0.7 SW 6 9 3 5 1029.0 1029.1 6.0
24/12:00am 9.4 7.2 8.0 91 0.7 WSW 9 11 5 6 1028.9 1029.0 6.0
 
Date/Time
EST
Temp
°C
App
Temp
°C
Dew
Point
°C
Rel
Hum
%
Delta-T
°C
Wind Press
QNH
hPa
Press
MSL
hPa
Rain since
9am
mm
Dir  Spd
km/h
Gust
km/h
Spd
kts
Gust
kts
23/11:30pm 9.3 7.2 8.4 94 0.4 WSW 9 13 5 7 1028.9 1029.0 6.0
23/11:00pm 9.0 7.3 8.4 96 0.3 WSW 7 9 4 5 1029.0 1029.1 5.4
23/10:55pm 9.0 7.3 8.2 95 0.4 W 7 9 4 5 1029.0 1029.1 5.2
23/10:30pm 9.0 7.7 7.8 92 0.6 SSW 4 9 2 5 1029.2 1029.3 3.4
23/10:18pm 9.1 7.4 7.7 91 0.7 S 6 7 3 4 1029.1 1029.2 2.4
23/10:00pm 9.2 6.9 7.3 88 0.9 SSW 9 11 5 6 1029.0 1029.1 1.2
23/09:30pm 9.3 6.9 7.1 86 1.0 SW 9 15 5 8 1028.7 1028.8 1.0
23/09:00pm 10.5 7.0 5.5 71 2.3 SSW 13 20 7 11 1028.6 1028.7 0.0
23/08:30pm 10.7 6.8 5.3 69 2.5 SSW 15 22 8 12 1028.4 1028.5 0.0
23/08:00pm 10.6 6.4 5.6 71 2.3 SSW 17 26 9 14 1028.0 1028.1 0.0
23/07:30pm 10.6 6.5 6.0 73 2.1 SSW 17 26 9 14 1027.9 1028.0 0.0
23/07:00pm 10.5 6.1 6.5 76 1.9 SSW 19 26 10 14 1027.8 1027.9 0.0
23/06:30pm 11.2 7.0 5.5 68 2.6 SSW 17 24 9 13 1027.6 1027.7 0.0
23/06:00pm 11.4 7.2 5.5 67 2.7 SSW 17 26 9 14 1027.6 1027.7 0.0
23/05:30pm 11.7 7.5 5.6 66 2.8 SSW 17 24 9 13 1027.2 1027.3 0.0
23/05:00pm 12.3 7.7 5.5 63 3.2 S 19 28 10 15 1027.0 1027.1 0.0
23/04:30pm 13.5 8.7 4.6 55 4.1 S 19 28 10 15 1026.6 1026.7 0.0
23/04:00pm 14.3 9.4 4.9 53 4.4 SSE 20 32 11 17 1026.3 1026.4 0.0
23/03:30pm 14.0 9.0 4.6 53 4.4 SSW 20 30 11 16 1026.1 1026.2 0.0
23/03:00pm 14.2 9.8 4.5 52 4.5 SSE 17 24 9 13 1025.8 1025.9 0.0
23/02:30pm 15.7 10.9 4.4 47 5.3 S 19 28 10 15 1025.6 1025.7 0.0
23/02:00pm 15.3 11.4 5.5 52 4.7 S 15 20 8 11 1025.5 1025.6 0.0
23/01:30pm 15.0 11.4 5.0 51 4.7 SSW 13 24 7 13 1025.6 1025.7 0.0
23/01:00pm 14.6 10.2 4.6 51 4.6 SW 17 24 9 13 1025.8 1025.9 0.0
23/12:30pm 15.1 10.3 4.8 50 4.8 SW 19 28 10 15 1026.1 1026.2 0.0
23/12:00pm 14.6 9.8 4.6 51 4.6 SSW 19 28 10 15 1026.5 1026.6 0.0
23/11:30am 13.8 9.8 4.9 55 4.1 SSW 15 24 8 13 1027.0 1027.1 0.0
23/11:00am 13.0 9.4 4.9 58 3.7 SW 13 20 7 11 1027.5 1027.6 0.0
23/10:30am 13.2 8.6 5.6 60 3.6 SSW 19 30 10 16 1027.8 1027.9 0.0
23/10:00am 12.0 7.2 5.4 64 3.0 SW 20 26 11 14 1028.0 1028.1 0.0
23/09:30am 11.0 7.6 6.0 71 2.3 SSW 13 20 7 11 1028.1 1028.2 0.0
23/09:00am 10.3 7.3 6.1 75 1.9 SW 11 19 6 10 1027.7 1027.8 0.0
23/08:59am 10.3 7.4 6.5 77 1.8 SW 11 17 6 9 1027.7 1027.8 0.0
23/08:40am 9.5 6.1 6.0 79 1.6 SW 13 20 7 11 1027.5 1027.6 0.0
23/08:30am 9.8 6.3 5.6 75 1.9 SW 13 17 7 9 1027.5 1027.6 0.0
23/08:00am 9.3 5.7 4.9 74 2.0 SW 13 19 7 10 1027.2 1027.3 0.0
23/07:30am 9.0 5.7 4.6 74 2.0 SSW 11 15 6 8 1027.1 1027.2 0.0
23/07:00am 7.8 4.7 3.5 74 1.8 SW 9 17 5 9 1026.8 1026.9 0.0
23/06:30am 7.9 3.6 3.4 73 1.9 SW 15 20 8 11 1026.4 1026.5 0.0
23/06:00am 7.5 3.5 2.8 72 2.0 SW 13 17 7 9 1026.2 1026.3 0.0
23/05:30am 7.4 3.3 2.5 71 2.0 SW 13 17 7 9 1026.1 1026.2 0.0
23/05:00am 7.1 3.0 2.2 71 2.0 SW 13 17 7 9 1025.9 1026.0 0.0
23/04:30am 6.4 2.3 2.3 75 1.7 SW 13 17 7 9 1025.7 1025.8 0.0
23/04:00am 4.8 2.3 1.7 80 1.2 WNW 4 9 2 5 1025.9 1026.0 0.0
23/03:30am 4.6 2.1 1.8 82 1.1 NW 4 7 2 4 1026.1 1026.2 0.0
23/03:00am 4.8 3.0 1.3 78 1.4 CALM 0 6 0 3 1026.1 1026.2 0.0
23/02:30am 5.1 1.2 1.0 75 1.6 SW 11 15 6 8 1025.9 1026.0 0.0
23/02:00am 4.5 1.5 1.7 82 1.1 SW 7 11 4 6 1025.9 1026.0 0.0
23/01:30am 3.3 -0.3 0.5 82 1.1 WSW 9 9 5 5 1026.1 1026.2 0.0
23/01:00am 3.2 1.0 0.8 84 0.9 WSW 2 7 1 4 1026.1 1026.2 0.0
23/12:30am 5.2 3.5 1.9 79 1.3 CALM 0 0 0 0 1026.0 1026.1 0.0
23/12:00am 3.1 1.5 2.2 94 0.4 CALM 0 0 0 0 1026.1 1026.2 0.0
 
Date/Time
EST
Temp
°C
App
Temp
°C
Dew
Point
°C
Rel
Hum
%
Delta-T
°C
Wind Press
QNH
hPa
Press
MSL
hPa
Rain since
9am
mm
Dir  Spd
km/h
Gust
km/h
Spd
kts
Gust
kts
22/11:30pm 3.5 0.6 1.5 87 0.8 SE 6 9 3 5 1026.3 1026.4 0.0
22/11:00pm 5.0 3.5 3.2 88 0.7 CALM 0 0 0 0 1026.2 1026.3 0.0
22/10:30pm 4.2 2.6 2.2 87 0.8 CALM 0 0 0 0 1026.3 1026.4 0.0
22/10:00pm 4.7 3.1 2.2 84 1.0 CALM 0 0 0 0 1026.4 1026.5 0.0
22/09:30pm 4.7 3.0 1.9 82 1.1 CALM 0 6 0 3 1026.4 1026.5 0.0
22/09:00pm 6.7 5.0 2.0 72 1.9 CALM 0 6 0 3 1026.4 1026.5 0.0
22/08:30pm 7.1 4.3 2.2 71 2.0 SW 6 9 3 5 1026.4 1026.5 0.0
22/08:00pm 7.4 5.2 3.1 74 1.8 SW 4 9 2 5 1026.5 1026.6 0.0
22/07:30pm 7.7 6.2 2.8 71 2.1 CALM 0 0 0 0 1026.5 1026.6 0.0
22/07:00pm 7.5 4.7 3.0 73 1.9 W 7 7 4 4 1026.4 1026.5 0.0
22/06:30pm 9.0 6.2 3.0 66 2.6 SSW 7 9 4 5 1026.5 1026.6 0.0
22/06:00pm 10.1 7.2 2.7 60 3.2 S 7 7 4 4 1026.3 1026.4 0.0
22/05:30pm 10.9 8.0 2.7 57 3.6 S 7 7 4 4 1026.0 1026.1 0.0
22/05:00pm 12.2 8.5 2.6 52 4.2 SSW 11 15 6 8 1025.8 1025.9 0.0
22/04:30pm 13.2 9.3 3.6 52 4.3 SSW 13 17 7 9 1025.6 1025.7 0.0
22/04:00pm 14.1 9.4 3.0 47 4.9 S 17 24 9 13 1025.5 1025.6 0.0
22/03:30pm 14.0 10.1 3.5 49 4.8 SSW 13 20 7 11 1025.4 1025.5 0.0
22/03:00pm 15.2 10.7 4.0 47 5.1 SSW 17 26 9 14 1025.2 1025.3 0.0
22/02:30pm 14.7 10.5 3.8 48 5.0 S 15 20 8 11 1025.1 1025.2 0.0
22/02:00pm 14.9 10.3 3.7 47 5.1 S 17 24 9 13 1025.1 1025.2 0.0
22/01:30pm 15.6 11.4 3.7 45 5.5 S 15 20 8 11 1025.1 1025.2 0.0
22/01:00pm 15.2 10.5 3.0 44 5.5 S 17 28 9 15 1025.2 1025.3 0.0
22/12:30pm 13.7 8.6 3.2 49 4.7 SSW 19 32 10 17 1025.6 1025.7 0.0
22/12:00pm 14.9 10.7 3.7 47 5.1 SW 15 26 8 14 1025.8 1025.9 0.0
22/11:30am 13.8 9.0 2.7 47 4.9 SSW 17 24 9 13 1026.2 1026.3 0.0
22/11:00am 13.4 8.6 2.6 48 4.7 SW 17 20 9 11 1026.6 1026.7 0.0
22/10:30am 12.8 7.6 2.6 50 4.5 SW 19 28 10 15 1026.9 1027.0 0.0
22/10:00am 12.2 6.8 2.4 51 4.2 SW 20 30 11 16 1026.9 1027.0 0.0
22/09:30am 11.3 5.8 1.8 52 4.0 SW 20 28 11 15 1026.9 1027.0 0.0
22/09:00am 10.4 5.5 1.8 55 3.6 SW 17 22 9 12 1026.8 1026.9 0.0
22/08:30am 9.4 4.8 1.6 58 3.2 SSW 15 20 8 11 1026.6 1026.7 0.0
22/08:00am 8.2 4.0 1.6 63 2.7 SW 13 19 7 10 1026.5 1026.6 0.0
22/07:30am 7.5 3.6 0.9 63 2.6 SW 11 17 6 9 1026.5 1026.6 0.0
22/07:00am 6.8 3.8 0.7 65 2.4 SW 6 9 3 5 1026.1 1026.2 0.0
22/06:30am 6.9 3.4 1.0 66 2.4 SW 9 20 5 11 1025.7 1025.8 0.0
22/06:00am 6.8 2.9 0.9 66 2.3 SW 11 15 6 8 1025.7 1025.8 0.0
22/05:30am 6.6 4.0 0.7 66 2.3 W 4 11 2 6 1025.4 1025.5 0.0
22/05:00am 6.4 3.2 0.5 66 2.3 WSW 7 11 4 6 1025.3 1025.4 0.0
22/04:30am 6.2 2.9 0.1 65 2.4 SSW 7 11 4 6 1025.1 1025.2 0.0
22/04:00am 6.1 3.4 0.6 68 2.1 WSW 4 9 2 5 1025.0 1025.1 0.0
22/03:30am 4.6 1.3 0.2 73 1.7 NW 7 9 4 5 1025.0 1025.1 0.0
22/03:00am 5.5 3.6 0.5 70 1.9 CALM 0 0 0 0 1025.2 1025.3 0.0
22/02:30am 4.0 0.4 0.3 77 1.4 NNE 9 11 5 6 1025.4 1025.5 0.0
22/02:00am 3.7 -0.3 0.8 81 1.1 WNW 11 15 6 8 1025.4 1025.5 0.0
22/01:30am 3.8 0.9 1.4 84 0.9 NNW 6 7 3 4 1025.6 1025.7 0.0
22/01:00am 3.5 0.7 3.1 97 0.2 N 7 11 4 6 1025.7 1025.8 0.0
22/12:30am 1.6 -1.3 1.5 99 0.0 N 6 9 3 5 1025.8 1025.9 0.0
22/12:00am 1.2 -0.6 0.9 98 0.1 CALM 0 0 0 0 1025.9 1026.0 0.0

Other formats

Comma delimited format used in spreadsheet applications
http://www.bom.gov.au/fwo/IDN60801/IDN60801.94755.axf

JavaScript Object Notation format (JSON) in row-major order
http://www.bom.gov.au/fwo/IDN60801/IDN60801.94755.json

Data quality

Most of these data are generated automatically and are frequently updated. Quality checks on data are not normally performed. It is possible for incorrect values to appear. Refer to information at About Latest Weather Observations and please check the disclaimer before using these data.